Time;durP1;ratioP1;P1;durP2;ratioP2;P2;SDS_P1;SDS_P2;PMS_P1;PMS_P2;Temp;Humidity;BMP_temperature;BMP_pressure;BME280_temperature;BME280_humidity;BME280_pressure;Samples;Min_cycle;Max_cycle;Signal;HPM_P1;HPM_P2
2024/03/28 00:01:42;;;;;;;;;18.00;17.00;;;;;12.98;95.77;97488.66;6306163;20;2837799;-48
2024/03/28 00:04:08;;;;;;;;;19.00;12.00;;;;;13.05;95.39;97527.44;6274169;20;2813802;-50
2024/03/28 00:06:36;;;;;;;;;18.00;14.67;;;;;12.94;95.78;97515.94;6276273;20;3549272;-50
2024/03/28 00:09:03;;;;;;;;;29.50;16.50;;;;;13.11;94.99;97510.59;6303690;20;2494141;-50
2024/03/28 00:11:30;;;;;;;;;18.50;14.50;;;;;13.08;94.63;97529.78;6274700;20;2813931;-47
2024/03/28 00:13:57;;;;;;;;;16.67;10.33;;;;;13.14;94.76;97543.47;6271346;20;3534671;-48
2024/03/28 00:16:24;;;;;;;;;17.00;14.00;;;;;13.16;94.52;97538.75;6302455;20;2494086;-48
2024/03/28 00:18:50;;;;;;;;;18.50;14.00;;;;;13.23;94.39;97536.25;6277283;20;2809781;-47
2024/03/28 00:21:17;;;;;;;;;16.00;15.00;;;;;13.26;94.29;97535.06;6273115;20;2491918;-46
2024/03/28 00:23:45;;;;;;;;;16.00;13.33;;;;;13.28;94.85;97530.41;6275525;20;3543075;-48
2024/03/28 00:26:12;;;;;;;;;18.50;12.00;;;;;13.31;94.67;97527.38;6276431;20;2805529;-48
2024/03/28 00:28:38;;;;;;;;;17.50;14.50;;;;;13.26;94.90;97526.97;6272813;20;2500282;-49
2024/03/28 00:31:07;;;;;;;;;21.50;17.50;;;;;13.09;95.97;97520.72;6275091;20;2848364;-47
2024/03/28 00:33:35;;;;;;;;;29.67;23.00;;;;;13.21;97.01;97505.91;6276649;20;3594086;-46
2024/03/28 00:36:04;;;;;;;;;20.00;18.33;;;;;13.16;96.82;97508.25;6273334;20;2844089;-51
2024/03/28 00:38:32;;;;;;;;;21.50;15.50;;;;;13.26;96.17;97502.72;6304317;20;2844137;-49
2024/03/28 00:40:59;;;;;;;;;24.00;17.00;;;;;13.26;96.30;97482.03;6274717;20;2844040;-46
2024/03/28 00:43:27;;;;;;;;;17.00;14.00;;;;;13.30;96.53;97464.53;6272490;20;2804490;-46
2024/03/28 00:45:54;;;;;;;;;18.67;14.00;;;;;13.30;96.21;97466.41;6269951;20;3533613;-49
2024/03/28 00:48:21;;;;;;;;;14.00;13.00;;;;;13.47;95.53;97448.38;6309854;20;2791980;-48
2024/03/28 00:50:57;;;;;;;;;23.00;16.00;;;;;13.66;94.53;97450.72;6272534;20;2487772;-46
2024/03/28 00:53:24;;;;;;;;;23.50;18.00;;;;;13.50;95.04;97458.81;6271245;20;2492572;-46
2024/03/28 00:55:52;;;;;;;;;20.33;16.33;;;;;13.46;95.64;97455.63;6272335;20;3563852;-47
2024/03/28 00:58:20;;;;;;;;;24.50;18.00;;;;;13.67;94.48;97463.22;6274398;20;2847308;-47
2024/03/28 01:00:49;;;;;;;;;20.00;16.00;;;;;13.56;95.69;97456.31;6272630;20;3550256;-46
2024/03/28 01:03:17;;;;;;;;;18.00;15.00;;;;;13.56;95.29;97456.31;6273336;20;3551438;-48
2024/03/28 01:05:44;;;;;;;;;25.00;15.50;;;;;13.73;95.38;97451.75;6284058;20;2839920;-46
2024/03/28 01:08:12;;;;;;;;;17.00;14.00;;;;;13.61;95.77;97455.78;6272614;20;2817990;-51
2024/03/28 01:10:40;;;;;;;;;19.50;18.00;;;;;13.67;95.30;97452.44;6274286;20;2831535;-52
2024/03/28 01:13:07;;;;;;;;;21.00;14.67;;;;;13.74;95.94;97453.41;6272704;20;3564863;-50
2024/03/28 01:15:37;;;;;;;;;17.00;16.50;;;;;13.73;97.04;97451.75;6270026;20;2825455;-50
2024/03/28 01:18:04;;;;;;;;;18.00;15.00;;;;;13.75;97.17;97457.81;6273030;20;2490105;-47
2024/03/28 01:20:31;;;;;;;;;21.00;16.50;;;;;13.90;96.69;97449.03;6273337;20;2829466;-52
2024/03/28 01:22:58;;;;;;;;;19.50;17.00;;;;;13.88;96.72;97449.22;6271819;20;2835730;-47
2024/03/28 01:25:25;;;;;;;;;18.00;14.50;;;;;13.87;97.06;97447.50;6269477;20;2823650;-49
2024/03/28 01:27:53;;;;;;;;;18.00;17.00;;;;;13.83;98.04;97452.41;6273214;20;2834626;-50
2024/03/28 01:30:20;;;;;;;;;22.50;17.00;;;;;13.84;98.48;97446.00;6272317;20;2835759;-48
2024/03/28 01:32:47;;;;;;;;;20.50;17.00;;;;;13.83;100.00;97444.31;6270984;20;2491955;-50
2024/03/28 01:35:13;;;;;;;;;21.00;19.00;;;;;13.79;100.00;97456.44;6268706;20;2500450;-47
2024/03/28 01:37:41;;;;;;;;;22.50;15.50;;;;;13.56;100.00;97444.66;6271559;20;2838893;-49
2024/03/28 01:40:10;;;;;;;;;23.33;18.67;;;;;13.38;100.00;97445.69;6271972;20;2851341;-48
2024/03/28 01:42:37;;;;;;;;;22.00;17.50;;;;;13.46;100.00;97439.44;6302456;20;2825263;-47
2024/03/28 01:45:06;;;;;;;;;28.00;22.50;;;;;13.33;100.00;97437.25;6270092;20;2848336;-50
2024/03/28 01:47:34;;;;;;;;;20.33;19.00;;;;;13.28;100.00;97439.59;6272844;20;2842104;-49
2024/03/28 01:50:02;;;;;;;;;23.50;20.50;;;;;13.43;100.00;97455.09;6301066;20;2837805;-47
2024/03/28 01:52:30;;;;;;;;;22.00;20.00;;;;;13.46;100.00;97457.50;6272071;20;2852788;-46
2024/03/28 01:54:58;;;;;;;;;25.00;22.50;;;;;13.33;100.00;97445.34;6269431;20;2839965;-49
2024/03/28 01:57:26;;;;;;;;;25.00;19.00;;;;;13.37;100.00;97449.38;6270684;20;2854484;-49
2024/03/28 01:59:53;;;;;;;;;24.33;22.33;;;;;13.20;100.00;97438.72;6272288;20;3577323;-46
2024/03/28 02:02:23;;;;;;;;;31.67;27.33;;;;;13.08;100.00;97439.03;6302838;20;3617089;-53
2024/03/28 02:04:51;;;;;;;;;26.00;24.67;;;;;12.95;100.00;97453.00;6303878;20;3602473;-52
2024/03/28 02:07:18;;;;;;;;;31.00;26.00;;;;;13.03;100.00;97443.22;6273596;20;3606529;-51
2024/03/28 02:09:46;;;;;;;;;37.00;29.00;;;;;13.01;100.00;97435.31;6271394;20;3615918;-51
2024/03/28 02:12:13;;;;;;;;;31.33;29.33;;;;;12.95;100.00;97431.44;6274420;20;3578391;-47
2024/03/28 02:14:41;;;;;;;;;29.33;29.33;;;;;12.99;100.00;97431.13;6268064;20;3589830;-48
2024/03/28 02:17:08;;;;;;;;;33.00;29.50;;;;;12.95;100.00;97434.16;6269009;20;2845141;-49
2024/03/28 02:19:36;;;;;;;;;41.00;34.67;;;;;12.96;100.00;97433.13;6272421;20;3607623;-47
2024/03/28 02:22:04;;;;;;;;;36.67;32.00;;;;;12.83;100.00;97415.75;6310205;20;3616051;-46
2024/03/28 02:24:33;;;;;;;;;39.67;32.00;;;;;12.94;100.00;97431.59;6276432;20;3627377;-46
2024/03/28 02:27:01;;;;;;;;;38.33;32.67;;;;;12.74;100.00;97422.94;6310460;20;3608594;-47
2024/03/28 02:29:28;;;;;;;;;38.67;33.67;;;;;12.48;100.00;97386.22;6278118;20;3609637;-46
2024/03/28 02:31:56;;;;;;;;;40.00;33.67;;;;;12.66;100.00;97439.09;6275708;20;2861956;-51
2024/03/28 02:34:24;;;;;;;;;41.67;34.00;;;;;12.78;100.00;97432.41;6308343;20;3620010;-50
2024/03/28 02:36:52;;;;;;;;;43.67;33.67;;;;;12.61;100.00;97385.75;6273272;20;3625316;-50
2024/03/28 02:39:20;;;;;;;;;40.67;34.33;;;;;12.55;100.00;97390.94;6309916;20;3583719;-48
2024/03/28 02:41:47;;;;;;;;;33.50;30.00;;;;;12.79;100.00;97377.53;6275384;20;2854436;-46
2024/03/28 02:44:15;;;;;;;;;41.67;33.33;;;;;12.63;100.00;97372.13;6278447;20;3611826;-49
2024/03/28 02:46:43;;;;;;;;;39.33;33.33;;;;;12.45;100.00;97370.41;6272917;20;3603412;-46
2024/03/28 02:49:10;;;;;;;;;42.33;35.00;;;;;12.79;100.00;97371.31;6310324;20;3606512;-49
2024/03/28 02:51:39;;;;;;;;;26.67;24.67;;;;;12.82;100.00;97384.44;6272831;20;2847237;-46
2024/03/28 02:54:07;;;;;;;;;40.00;32.33;;;;;12.51;100.00;97398.50;6305580;20;3624248;-46
2024/03/28 02:56:34;;;;;;;;;38.00;32.00;;;;;12.82;100.00;97419.44;6310880;20;2675292;-46
2024/03/28 02:59:01;;;;;;;;;37.33;32.33;;;;;12.75;100.00;97435.44;6280300;20;3596114;-49
2024/03/28 03:01:30;;;;;;;;;38.33;32.33;;;;;12.77;100.00;97438.81;6275835;20;3612782;-50
2024/03/28 03:03:58;;;;;;;;;35.00;31.00;;;;;12.74;100.00;97449.88;6304609;20;2868110;-46
2024/03/28 03:06:28;;;;;;;;;40.67;35.67;;;;;12.79;100.00;97441.31;6306745;20;3583685;-47
2024/03/28 03:08:55;;;;;;;;;34.50;30.00;;;;;12.68;100.00;97445.16;6271653;20;2843067;-47
2024/03/28 03:11:24;;;;;;;;;45.33;32.33;;;;;12.70;100.00;97456.63;6271847;20;3629452;-48
2024/03/28 03:13:54;;;;;;;;;39.50;32.75;;;;;12.66;100.00;97458.78;6323218;20;3619034;-48
2024/03/28 03:16:21;;;;;;;;;37.33;34.00;;;;;12.80;100.00;97460.03;6274283;20;3594030;-49
2024/03/28 03:18:50;;;;;;;;;33.33;31.33;;;;;12.71;100.00;97453.75;6271152;20;3595089;-47
2024/03/28 03:21:18;;;;;;;;;40.33;30.33;;;;;12.61;100.00;97450.38;6309641;20;3626326;-49
2024/03/28 03:23:48;;;;;;;;;39.33;33.00;;;;;12.48;100.00;97460.72;6277416;20;3613811;-48
2024/03/28 03:26:25;;;;;;;;;37.00;32.33;;;;;12.63;100.00;97467.19;6277075;20;3595100;-49
2024/03/28 03:34:35;;;;;;;;;33.33;30.00;;;;;12.45;100.00;97472.66;6305586;20;3605499;-48
2024/03/28 03:37:10;;;;;;;;;32.00;30.33;;;;;12.40;100.00;97453.47;6276623;20;3615858;-48
2024/03/28 03:39:37;;;;;;;;;33.67;30.67;;;;;12.42;100.00;97467.59;6307744;20;3581527;-48
2024/03/28 03:42:08;;;;;;;;;26.33;24.00;;;;;12.45;100.00;97461.91;6273502;20;3589909;-49
2024/03/28 03:44:35;;;;;;;;;23.00;20.33;;;;;12.46;100.00;97476.19;6307990;20;3574284;-49
2024/03/28 03:47:03;;;;;;;;;26.50;22.00;;;;;12.42;100.00;97483.72;6273737;20;2842083;-48
2024/03/28 03:49:31;;;;;;;;;21.00;16.50;;;;;12.45;100.00;97485.25;6274718;20;2826466;-49
2024/03/28 03:51:58;;;;;;;;;17.50;16.00;;;;;12.34;100.00;97485.53;6273200;20;2814851;-46
2024/03/28 03:54:26;;;;;;;;;11.67;10.00;;;;;12.28;100.00;97470.88;6271585;20;2785809;-47
2024/03/28 03:56:52;;;;;;;;;14.50;11.00;;;;;11.96;100.00;97483.13;6306329;20;2789950;-49
2024/03/28 03:59:19;;;;;;;;;7.00;7.00;;;;;12.15;100.00;97498.22;6277823;20;2739898;-46
2024/03/28 04:01:45;;;;;;;;;9.00;9.00;;;;;12.04;100.00;97495.78;6273358;20;2758662;-47
2024/03/28 04:04:12;;;;;;;;;11.50;10.00;;;;;12.04;100.00;97509.25;6274258;20;2782652;-46
2024/03/28 04:06:40;;;;;;;;;7.60;7.60;;;;;12.03;100.00;97519.16;6303267;20;2738234;-49
2024/03/28 04:09:08;;;;;;;;;8.50;8.50;;;;;11.95;100.00;97534.38;6309474;20;2738917;-46
2024/03/28 04:11:36;;;;;;;;;7.00;7.00;;;;;11.96;100.00;97538.78;6275499;20;2748301;-47
2024/03/28 04:14:03;;;;;;;;;9.00;8.00;;;;;12.20;100.00;97536.25;6278334;20;2731553;-49
2024/03/28 04:16:31;;;;;;;;;13.80;9.60;;;;;12.11;100.00;97529.09;6299845;20;2788830;-51
2024/03/28 04:19:00;;;;;;;;;13.40;9.40;;;;;11.99;100.00;97533.91;6299350;20;2771197;-49
2024/03/28 04:21:29;;;;;;;;;11.00;9.50;;;;;12.17;100.00;97549.19;6277121;20;2783729;-51
2024/03/28 04:23:58;;;;;;;;;9.00;8.20;;;;;12.04;100.00;97566.56;6299049;20;2757183;-50
2024/03/28 04:26:26;;;;;;;;;5.00;3.00;;;;;12.05;100.00;97567.41;6300201;20;2755528;-48
2024/03/28 04:28:53;;;;;;;;;6.50;6.00;;;;;12.00;100.00;97562.47;6276134;20;2745087;-47
2024/03/28 04:31:20;;;;;;;;;9.00;4.50;;;;;12.00;100.00;97559.78;6274129;20;2759761;-47
2024/03/28 04:33:48;;;;;;;;;8.00;3.50;;;;;11.95;100.00;97555.88;6278272;20;2750694;-48
2024/03/28 04:36:15;;;;;;;;;5.00;5.00;;;;;11.93;100.00;97553.38;6276363;20;2743027;-48
2024/03/28 04:38:44;;;;;;;;;6.00;5.00;;;;;11.99;100.00;97562.66;6281175;20;2633735;-51
2024/03/28 04:41:13;;;;;;;;;7.00;6.50;;;;;11.97;100.00;97557.41;6276555;20;2748208;-47
2024/03/28 04:43:40;;;;;;;;;4.00;2.50;;;;;11.97;100.00;97551.22;6274967;20;2756532;-48
2024/03/28 04:46:06;;;;;;;;;4.00;4.00;;;;;11.95;100.00;97556.72;6278956;20;2750355;-46
2024/03/28 04:48:33;;;;;;;;;5.00;3.50;;;;;11.85;100.00;97551.44;6275788;20;2742005;-47
2024/03/28 04:51:00;;;;;;;;;3.00;3.00;;;;;11.87;100.00;97559.34;6278074;20;2737821;-46
2024/03/28 04:53:26;;;;;;;;;3.00;3.00;;;;;11.73;100.00;97557.19;6277247;20;2742081;-47
2024/03/28 04:55:53;;;;;;;;;4.00;3.00;;;;;11.68;100.00;97564.88;6275806;20;2739864;-49
2024/03/28 04:58:19;;;;;;;;;5.00;4.00;;;;;11.81;100.00;97568.00;6276731;20;2742979;-47
2024/03/28 05:00:46;;;;;;;;;3.00;2.00;;;;;11.82;100.00;97562.50;6276540;20;2749266;-48
2024/03/28 05:03:12;;;;;;;;;2.00;2.00;;;;;11.63;100.00;97582.28;6276056;20;2739868;-51
2024/03/28 05:05:39;;;;;;;;;1.00;1.00;;;;;11.61;100.00;97588.81;6275804;20;2722123;-52
2024/03/28 05:08:06;;;;;;;;;1.50;1.50;;;;;11.74;100.00;97596.50;6293179;20;1804997;-47
2024/03/28 05:10:37;;;;;;;;;0.50;0.00;;;;;11.67;100.00;97598.13;6309585;20;2733616;-48
2024/03/28 05:13:04;;;;;;;;;1.25;0.75;;;;;11.60;100.00;97590.66;6292834;20;1802862;-52
2024/03/28 05:15:31;;;;;;;;;0.00;0.00;;;;;11.56;100.00;97599.22;6307460;20;2725285;-47
2024/03/28 05:17:58;;;;;;;;;1.00;1.00;;;;;11.44;100.00;97601.25;6291855;20;1802154;-48
2024/03/28 05:20:26;;;;;;;;;2.00;1.50;;;;;11.56;100.00;97613.47;6324908;20;1803535;-49
2024/03/28 05:22:52;;;;;;;;;7.00;7.00;;;;;11.47;100.00;97626.97;6306643;20;2739858;-47
2024/03/28 05:25:21;;;;;;;;;8.60;8.40;;;;;11.38;100.00;97613.44;6296548;20;2744069;-48
2024/03/28 05:27:48;;;;;;;;;0.75;0.00;;;;;11.49;100.00;97615.06;6294073;20;1807403;-48
2024/03/28 05:30:15;;;;;;;;;3.25;2.00;;;;;11.43;100.00;97623.75;6323434;20;1797247;-50
2024/03/28 05:32:42;;;;;;;;;4.00;2.00;;;;;11.36;100.00;97634.25;6307057;20;2751439;-48
2024/03/28 05:35:09;;;;;;;;;2.00;0.50;;;;;11.35;100.00;97631.72;6288963;20;1801539;-45
2024/03/28 05:37:37;;;;;;;;;1.00;1.00;;;;;11.38;100.00;97639.47;6321361;20;1805620;-48
2024/03/28 05:40:05;;;;;;;;;2.00;0.50;;;;;11.30;100.00;97639.38;6308695;20;2727340;-47
2024/03/28 05:42:32;;;;;;;;;0.00;0.00;;;;;11.21;100.00;97650.00;6292723;20;1802479;-47
2024/03/28 05:44:58;;;;;;;;;1.00;1.00;;;;;11.29;100.00;97659.16;6307108;20;2733636;-49
2024/03/28 05:47:26;;;;;;;;;1.00;1.00;;;;;11.33;100.00;97657.88;6291220;20;1802434;-47
2024/03/28 05:49:53;;;;;;;;;0.25;0.25;;;;;11.25;100.00;97665.84;6323527;20;1802446;-47
2024/03/28 05:52:20;;;;;;;;;0.00;0.00;;;;;11.39;100.00;97685.00;6322433;20;1806315;-46
2024/03/28 05:54:48;;;;;;;;;0.00;0.00;;;;;11.34;100.00;97686.44;6324527;20;1800398;-47
2024/03/28 05:57:15;;;;;;;;;3.00;0.00;;;;;11.28;100.00;97681.66;6328262;20;1803232;-50
2024/03/28 05:59:42;;;;;;;;;0.00;0.00;;;;;11.29;100.00;97677.97;6311906;20;2727363;-47
2024/03/28 06:02:09;;;;;;;;;0.00;0.00;;;;;11.35;100.00;97682.78;6296230;20;1810017;-47
2024/03/28 06:04:36;;;;;;;;;0.00;0.00;;;;;11.53;100.00;97674.72;6325556;20;1803534;-46
2024/03/28 06:07:04;;;;;;;;;0.00;0.00;;;;;11.52;100.00;97684.66;6329231;20;1805586;-46
2024/03/28 06:09:31;;;;;;;;;1.00;1.00;;;;;11.46;100.00;97684.41;6312367;20;2461812;-45
2024/03/28 06:11:58;;;;;;;;;1.00;1.00;;;;;11.41;100.00;97677.63;6297285;20;1804568;-47
2024/03/28 06:14:24;;;;;;;;;1.00;1.00;;;;;11.26;100.00;97676.44;6311844;20;2736778;-47
2024/03/28 06:16:52;;;;;;;;;1.00;1.00;;;;;11.35;100.00;97688.16;6295834;20;1804717;-48
2024/03/28 06:19:19;;;;;;;;;0.25;0.25;;;;;11.31;100.00;97694.78;6330410;20;1803488;-50
2024/03/28 06:21:46;;;;;;;;;0.00;0.00;;;;;11.59;100.00;97684.91;6314547;20;2727431;-49
2024/03/28 06:24:13;;;;;;;;;0.75;0.75;;;;;11.45;100.00;97688.91;6298189;20;1802477;-48
2024/03/28 06:26:40;;;;;;;;;0.75;0.75;;;;;11.52;100.00;97698.09;6328988;20;1803540;-47
2024/03/28 06:29:08;;;;;;;;;0.00;0.00;;;;;11.45;100.00;97690.75;6328322;20;1803480;-52
2024/03/28 06:31:40;;;;;;;;;2.00;0.00;;;;;11.32;100.00;97701.84;6330013;20;1800374;-47
2024/03/28 06:34:07;;;;;;;;;0.00;0.00;;;;;11.41;100.00;97696.44;6327706;20;1803478;-50
2024/03/28 06:36:34;;;;;;;;;1.00;1.00;;;;;12.29;97.52;97717.41;6325196;20;1803576;-46
2024/03/28 06:39:01;;;;;;;;;1.00;1.00;;;;;11.90;96.17;97711.47;6312583;20;2733679;-46
2024/03/28 06:41:27;;;;;;;;;1.00;1.00;;;;;12.08;96.58;97718.59;6280653;20;2721192;-52
2024/03/28 06:43:55;;;;;;;;;1.00;1.00;;;;;11.87;94.63;97731.44;6295583;20;1805577;-51
2024/03/28 06:46:22;;;;;;;;;0.50;0.00;;;;;12.11;92.88;97721.94;6326355;20;1806687;-53
2024/03/28 06:48:48;;;;;;;;;1.00;1.00;;;;;11.90;93.37;97720.41;6312849;20;2727390;-49
2024/03/28 06:51:16;;;;;;;;;2.50;1.00;;;;;11.88;93.54;97732.31;6296216;20;1809814;-50
2024/03/28 06:53:42;;;;;;;;;1.00;1.00;;;;;11.87;94.35;97728.75;6312450;20;2733613;-46
2024/03/28 06:56:09;;;;;;;;;6.50;4.00;;;;;11.88;92.70;97743.91;6276529;20;2749206;-48
2024/03/28 06:58:36;;;;;;;;;4.00;4.00;;;;;12.28;91.03;97748.03;6280205;20;2754489;-46
2024/03/28 07:01:04;;;;;;;;;9.00;8.00;;;;;12.27;91.03;97755.25;6278799;20;2744036;-49
2024/03/28 07:03:31;;;;;;;;;12.00;6.00;;;;;12.42;88.11;97765.47;6280753;20;2769053;-50
2024/03/28 07:05:58;;;;;;;;;0.00;0.00;;;;;12.08;90.86;97772.38;6298137;20;1804190;-47
2024/03/28 07:08:26;;;;;;;;;0.75;0.75;;;;;12.36;89.17;97761.56;6329379;20;1802493;-47
2024/03/28 07:10:53;;;;;;;;;0.75;0.75;;;;;12.39;87.39;97769.31;6330253;20;1805606;-50
2024/03/28 07:13:19;;;;;;;;;1.00;1.00;;;;;13.03;83.24;97767.34;6314270;20;2727431;-48
2024/03/28 07:15:47;;;;;;;;;0.00;0.00;;;;;12.56;84.37;97772.16;6297092;20;1809762;-48
2024/03/28 07:18:14;;;;;;;;;1.00;1.00;;;;;12.39;85.80;97768.50;6335434;20;1802885;-51
2024/03/28 07:20:41;;;;;;;;;2.00;1.00;;;;;13.06;81.78;97777.81;6314631;20;2725405;-53
2024/03/28 07:23:09;;;;;;;;;1.50;1.00;;;;;13.25;78.51;97782.16;6299012;20;1803476;-47
2024/03/28 07:25:36;;;;;;;;;1.00;1.00;;;;;13.23;79.04;97784.16;6310647;20;2733666;-53
2024/03/28 07:28:03;;;;;;;;;1.00;1.00;;;;;13.31;76.45;97802.28;6281974;20;2741970;-48
2024/03/28 07:30:29;;;;;;;;;2.00;1.00;;;;;13.52;74.61;97797.34;6280745;20;2737862;-48
2024/03/28 07:32:56;;;;;;;;;3.00;2.00;;;;;13.88;74.20;97801.75;6281312;20;2746253;-49
2024/03/28 07:35:22;;;;;;;;;2.50;1.00;;;;;14.04;71.78;97805.38;6281100;20;2727422;-46
2024/03/28 07:37:49;;;;;;;;;1.00;1.00;;;;;13.27;73.34;97803.59;6283992;20;2727346;-47
2024/03/28 07:40:16;;;;;;;;;1.75;1.00;;;;;13.70;69.33;97812.63;6297929;20;1803549;-49
2024/03/28 07:42:43;;;;;;;;;0.00;0.00;;;;;13.40;68.88;97809.41;6314659;20;2729846;-50
2024/03/28 07:45:10;;;;;;;;;0.50;0.00;;;;;14.50;66.25;97813.91;6295770;20;1803194;-49
2024/03/28 07:47:37;;;;;;;;;0.00;0.00;;;;;14.88;64.69;97816.22;6314866;20;2726364;-50
2024/03/28 07:50:04;;;;;;;;;1.00;1.00;;;;;14.75;64.04;97821.28;6282459;20;2729466;-49
2024/03/28 07:52:30;;;;;;;;;0.00;0.00;;;;;14.26;64.73;97813.88;6283984;20;2727361;-48
2024/03/28 07:54:58;;;;;;;;;0.00;0.00;;;;;14.75;64.21;97818.59;6294208;20;1803961;-49
2024/03/28 07:57:24;;;;;;;;;1.00;1.00;;;;;15.19;61.10;97827.19;6312077;20;2739902;-47
2024/03/28 07:59:51;;;;;;;;;0.00;0.00;;;;;14.37;58.79;97828.91;6280095;20;2735715;-47
2024/03/28 08:02:17;;;;;;;;;0.00;0.00;;;;;14.06;60.46;97829.50;6283266;20;2735750;-53
2024/03/28 08:04:45;;;;;;;;;1.00;0.25;;;;;14.37;60.32;97845.94;6293166;20;1803592;-51
2024/03/28 08:07:11;;;;;;;;;1.00;1.00;;;;;14.98;59.51;97862.84;6315496;20;2731556;-50
2024/03/28 08:09:38;;;;;;;;;2.00;0.00;;;;;14.79;58.01;97850.47;6282126;20;2727503;-51
2024/03/28 08:12:08;;;;;;;;;1.00;0.00;;;;;15.18;56.56;97851.72;6283032;20;2725300;-48
2024/03/28 08:14:35;;;;;;;;;0.50;0.00;;;;;15.25;57.25;97871.66;6281399;20;2726823;-50
2024/03/28 08:17:02;;;;;;;;;1.00;1.00;;;;;15.31;56.62;97873.69;6279669;20;2726395;-53
2024/03/28 08:19:29;;;;;;;;;0.50;0.00;;;;;15.68;55.89;97856.91;6295955;20;1796203;-50
2024/03/28 08:21:56;;;;;;;;;1.00;0.00;;;;;15.47;56.47;97860.13;6312739;20;2734708;-53
2024/03/28 08:24:25;;;;;;;;;2.50;0.00;;;;;15.63;55.47;97861.13;6280693;20;2727421;-50
2024/03/28 08:26:52;;;;;;;;;0.00;0.00;;;;;15.57;54.95;97874.34;6279912;20;2727517;-53
2024/03/28 08:29:18;;;;;;;;;0.00;0.00;;;;;16.07;55.90;97871.56;6282974;20;2727392;-47
2024/03/28 08:31:45;;;;;;;;;0.00;0.00;;;;;16.55;54.36;97845.28;6282934;20;2736166;-49
2024/03/28 08:34:11;;;;;;;;;2.00;0.00;;;;;15.97;54.17;97867.19;6283355;20;2735753;-49
2024/03/28 08:36:38;;;;;;;;;1.50;0.00;;;;;15.75;53.05;97870.63;6279814;20;2733679;-48
2024/03/28 08:39:05;;;;;;;;;0.00;0.00;;;;;16.05;51.32;97866.31;6282993;20;2724348;-53
2024/03/28 08:41:32;;;;;;;;;1.00;0.00;;;;;16.00;51.66;97852.44;6285177;20;2723295;-48
2024/03/28 08:43:59;;;;;;;;;2.00;0.00;;;;;15.99;51.97;97858.91;6281124;20;2737771;-49
2024/03/28 08:46:25;;;;;;;;;0.00;0.00;;;;;16.25;51.66;97861.34;6283712;20;2727382;-51
2024/03/28 08:48:52;;;;;;;;;2.00;0.00;;;;;16.29;51.38;97868.09;6280875;20;2735716;-49
2024/03/28 08:51:22;;;;;;;;;0.00;0.00;;;;;15.90;50.33;97868.88;6286190;20;2725305;-49
2024/03/28 08:53:49;;;;;;;;;0.00;0.00;;;;;16.15;50.84;97871.53;6282303;20;2730529;-49
2024/03/28 08:56:17;;;;;;;;;0.75;0.00;;;;;16.37;49.97;97883.47;6296769;20;1797714;-50
2024/03/28 08:58:44;;;;;;;;;0.00;0.00;;;;;16.29;50.50;97878.91;6310989;20;2733627;-51
2024/03/28 09:01:10;;;;;;;;;0.00;0.00;;;;;16.46;49.55;97879.72;6283786;20;2725414;-47
2024/03/28 09:03:37;;;;;;;;;0.00;0.00;;;;;16.48;48.97;97876.81;6281319;20;2728730;-49
2024/03/28 09:06:09;;;;;;;;;0.00;0.00;;;;;15.93;48.65;97875.81;6284664;20;2731514;-48
2024/03/28 09:08:36;;;;;;;;;0.00;0.00;;;;;16.42;49.02;97872.94;6283274;20;2718140;-49
2024/03/28 09:11:06;;;;;;;;;0.00;0.00;;;;;17.08;48.69;97866.13;6283957;20;2728373;-48
2024/03/28 09:13:32;;;;;;;;;1.00;0.00;;;;;17.31;47.94;97874.28;6282460;20;2727406;-53
2024/03/28 09:15:59;;;;;;;;;0.00;0.00;;;;;17.11;47.18;97856.81;6279959;20;2735812;-48
2024/03/28 09:18:25;;;;;;;;;0.00;0.00;;;;;16.78;47.24;97862.47;6282728;20;2733622;-51
2024/03/28 09:20:52;;;;;;;;;0.00;0.00;;;;;17.07;47.67;97860.91;6283433;20;2729465;-51
2024/03/28 09:23:19;;;;;;;;;0.00;0.00;;;;;17.08;46.50;97858.00;6283118;20;2727381;-50
2024/03/28 09:25:45;;;;;;;;;0.00;0.00;;;;;16.36;45.95;97852.81;6280809;20;2726369;-51
2024/03/28 09:28:13;;;;;;;;;0.00;0.00;;;;;16.54;46.50;97860.69;6281618;20;2729573;-51
2024/03/28 09:30:40;;;;;;;;;1.00;0.00;;;;;17.33;47.36;97866.81;6283677;20;2726358;-48
2024/03/28 09:33:06;;;;;;;;;1.00;0.00;;;;;17.51;45.77;97868.38;6281884;20;2733742;-52
2024/03/28 09:35:34;;;;;;;;;0.00;0.00;;;;;16.86;45.77;97870.53;6280518;20;2727368;-48
2024/03/28 09:38:01;;;;;;;;;0.00;0.00;;;;;16.82;44.98;97869.19;6283189;20;2735722;-50
2024/03/28 09:40:32;;;;;;;;;0.00;0.00;;;;;17.10;44.92;97865.97;6281504;20;2717166;-47
2024/03/28 09:42:58;;;;;;;;;2.00;0.00;;;;;17.11;43.67;97860.38;6282373;20;2726379;-50
2024/03/28 09:45:27;;;;;;;;;1.00;0.00;;;;;16.82;43.85;97871.06;6280221;20;2727467;-45
2024/03/28 09:47:56;;;;;;;;;1.50;0.00;;;;;17.25;44.16;97871.47;6287124;20;2723193;-47
2024/03/28 09:50:24;;;;;;;;;0.00;0.00;;;;;16.94;43.01;97866.94;6284758;20;2731614;-49
2024/03/28 09:52:52;;;;;;;;;1.00;0.00;;;;;17.55;43.50;97875.09;6283003;20;2730495;-46
2024/03/28 09:55:20;;;;;;;;;1.00;0.00;;;;;17.63;42.43;97876.91;6278713;20;2726358;-50
2024/03/28 09:57:46;;;;;;;;;0.00;0.00;;;;;17.31;42.13;97906.00;6280545;20;2727392;-46
2024/03/28 10:00:13;;;;;;;;;0.50;0.00;;;;;17.13;42.54;97887.31;6283964;20;2733652;-52
2024/03/28 10:03:08;;;;;;;;;0.00;0.00;;;;;17.68;42.47;97905.16;6283791;20;2729482;-48
2024/03/28 10:05:35;;;;;;;;;0.00;0.00;;;;;18.11;41.82;97897.28;6283805;20;2727394;-49
2024/03/28 10:08:03;;;;;;;;;0.00;0.00;;;;;17.76;42.43;97909.69;6280980;20;2733651;-48
2024/03/28 10:10:30;;;;;;;;;0.00;0.00;;;;;18.57;41.91;97907.16;6281125;20;2727538;-47
2024/03/28 10:13:04;;;;;;;;;1.00;0.00;;;;;18.25;42.01;97911.94;6280322;20;2733658;-53
2024/03/28 10:15:32;;;;;;;;;0.00;0.00;;;;;17.08;44.48;97922.25;6297401;20;1787923;-50
2024/03/28 10:18:05;;;;;;;;;0.00;0.00;;;;;16.84;43.52;97925.94;6308562;20;2729475;-46
2024/03/28 10:20:34;;;;;;;;;2.00;0.00;;;;;17.32;42.95;97919.38;6280770;20;2735734;-51
2024/03/28 10:23:09;;;;;;;;;0.40;0.00;;;;;16.65;43.52;97929.91;6319608;20;2456704;-48
2024/03/28 10:25:36;;;;;;;;;0.00;0.00;;;;;17.00;43.25;97927.72;6307317;20;2723225;-49
2024/03/28 10:28:03;;;;;;;;;3.00;0.00;;;;;17.63;42.24;97923.88;6280955;20;2735778;-48
2024/03/28 10:30:30;;;;;;;;;0.00;0.00;;;;;17.02;43.14;97933.81;6279041;20;2735769;-49
2024/03/28 10:33:06;;;;;;;;;2.75;0.00;;;;;16.75;43.38;97927.84;6294026;20;1794094;-50
2024/03/28 10:35:42;;;;;;;;;0.00;0.00;;;;;16.93;43.02;97924.03;6307025;20;2731505;-47
2024/03/28 10:38:10;;;;;;;;;0.00;0.00;;;;;17.26;42.55;97925.50;6279355;20;2731560;-49
2024/03/28 10:40:37;;;;;;;;;1.00;0.50;;;;;17.11;43.33;97930.88;6286513;20;2725315;-48
2024/03/28 10:43:06;;;;;;;;;2.00;0.00;;;;;17.03;43.66;97922.78;6286412;20;2732649;-49
2024/03/28 10:45:41;;;;;;;;;0.00;0.00;;;;;16.93;43.78;97932.16;6282575;20;2735754;-50
2024/03/28 10:48:27;;;;;;;;;1.00;0.00;;;;;17.80;42.26;97930.06;6284880;20;2731571;-46
2024/03/28 10:51:23;;;;;;;;;0.00;0.00;;;;;17.65;41.44;97927.25;6286033;20;2731609;-46
2024/03/28 10:54:15;;;;;;;;;2.50;0.00;;;;;17.39;41.73;97929.50;6287915;20;2729575;-49
2024/03/28 10:56:44;;;;;;;;;0.00;0.00;;;;;17.56;42.16;97936.47;6288092;20;2735755;-46
2024/03/28 10:59:14;;;;;;;;;0.00;0.00;;;;;18.32;40.78;97931.03;6288398;20;2729975;-48
2024/03/28 11:01:41;;;;;;;;;0.00;0.00;;;;;17.83;40.92;97940.53;6287593;20;2731569;-46
2024/03/28 11:04:16;;;;;;;;;0.67;0.00;;;;;17.62;41.85;97952.06;6313957;20;2731099;-49
2024/03/28 11:06:44;;;;;;;;;1.00;1.00;;;;;17.38;41.56;97966.66;6313777;20;2741971;-47
2024/03/28 11:09:13;;;;;;;;;0.00;0.00;;;;;18.17;41.01;97964.47;6315379;20;2735706;-46
2024/03/28 11:11:41;;;;;;;;;0.00;0.00;;;;;18.24;40.42;97955.56;6314115;20;2735751;-49
2024/03/28 11:14:08;;;;;;;;;2.00;0.00;;;;;18.27;40.34;97966.91;6313861;20;2727426;-51
2024/03/28 11:16:36;;;;;;;;;0.00;0.00;;;;;18.20;40.74;97955.97;6314165;20;2731530;-49